sensor_id;sensor_type;location;lat;lon;timestamp;pressure;altitude;pressure_sealevel;temperature
38249;BMP280;24045;51.138;17.126;2023-09-19T00:03:13;99555.69;;;20.12
38249;BMP280;24045;51.138;17.126;2023-09-19T00:18:17;99560.15;;;19.95
38249;BMP280;24045;51.138;17.126;2023-09-19T00:33:24;99572.52;;;19.70
38249;BMP280;24045;51.138;17.126;2023-09-19T00:48:27;99569.30;;;19.66
38249;BMP280;24045;51.138;17.126;2023-09-19T01:03:31;99572.70;;;19.56
38249;BMP280;24045;51.138;17.126;2023-09-19T01:18:47;99562.20;;;19.48
38249;BMP280;24045;51.138;17.126;2023-09-19T01:33:54;99548.08;;;19.43
38249;BMP280;24045;51.138;17.126;2023-09-19T02:04:24;99560.45;;;19.24
38249;BMP280;24045;51.138;17.126;2023-09-19T02:19:27;99560.52;;;18.96
38249;BMP280;24045;51.138;17.126;2023-09-19T02:34:30;99553.98;;;18.85
38249;BMP280;24045;51.138;17.126;2023-09-19T02:49:33;99560.06;;;18.77
38249;BMP280;24045;51.138;17.126;2023-09-19T03:04:37;99552.30;;;18.67
38249;BMP280;24045;51.138;17.126;2023-09-19T03:19:40;99527.54;;;18.50
38249;BMP280;24045;51.138;17.126;2023-09-19T03:34:43;99529.52;;;18.38
38249;BMP280;24045;51.138;17.126;2023-09-19T03:49:46;99536.46;;;18.30
38249;BMP280;24045;51.138;17.126;2023-09-19T04:04:49;99553.58;;;18.21
38249;BMP280;24045;51.138;17.126;2023-09-19T04:19:53;99547.28;;;18.11
38249;BMP280;24045;51.138;17.126;2023-09-19T04:34:56;99539.73;;;18.03
38249;BMP280;24045;51.138;17.126;2023-09-19T04:50:02;99542.88;;;17.93
38249;BMP280;24045;51.138;17.126;2023-09-19T05:05:07;99553.73;;;17.90
38249;BMP280;24045;51.138;17.126;2023-09-19T05:20:10;99566.31;;;17.79
38249;BMP280;24045;51.138;17.126;2023-09-19T05:35:27;99572.73;;;17.75
38249;BMP280;24045;51.138;17.126;2023-09-19T05:50:30;99583.02;;;18.03
38249;BMP280;24045;51.138;17.126;2023-09-19T06:05:35;99603.84;;;18.32
38249;BMP280;24045;51.138;17.126;2023-09-19T06:20:37;99627.61;;;18.73
38249;BMP280;24045;51.138;17.126;2023-09-19T06:35:40;99630.00;;;19.48
38249;BMP280;24045;51.138;17.126;2023-09-19T06:50:44;99648.50;;;19.99
38249;BMP280;24045;51.138;17.126;2023-09-19T07:05:48;99654.38;;;19.92
38249;BMP280;24045;51.138;17.126;2023-09-19T07:20:50;99677.58;;;20.45
38249;BMP280;24045;51.138;17.126;2023-09-19T07:35:54;99701.92;;;24.18
38249;BMP280;24045;51.138;17.126;2023-09-19T07:51:01;99706.98;;;25.72
38249;BMP280;24045;51.138;17.126;2023-09-19T08:06:04;99724.71;;;23.64
38249;BMP280;24045;51.138;17.126;2023-09-19T08:21:07;99744.59;;;22.89
38249;BMP280;24045;51.138;17.126;2023-09-19T08:36:13;99762.30;;;22.15
38249;BMP280;24045;51.138;17.126;2023-09-19T08:51:18;99775.05;;;21.73
38249;BMP280;24045;51.138;17.126;2023-09-19T09:06:24;99784.98;;;21.55
38249;BMP280;24045;51.138;17.126;2023-09-19T09:21:27;99787.91;;;21.45
38249;BMP280;24045;51.138;17.126;2023-09-19T09:36:34;99812.39;;;21.34
38249;BMP280;24045;51.138;17.126;2023-09-19T09:51:42;99828.81;;;21.89
38249;BMP280;24045;51.138;17.126;2023-09-19T10:07:03;99839.73;;;23.84
38249;BMP280;24045;51.138;17.126;2023-09-19T10:22:08;99841.50;;;24.64
38249;BMP280;24045;51.138;17.126;2023-09-19T10:37:12;99861.52;;;24.69
38249;BMP280;24045;51.138;17.126;2023-09-19T10:52:17;99867.09;;;24.60
38249;BMP280;24045;51.138;17.126;2023-09-19T11:07:22;99872.23;;;24.11
38249;BMP280;24045;51.138;17.126;2023-09-19T11:22:55;99879.13;;;24.75
38249;BMP280;24045;51.138;17.126;2023-09-19T11:52:59;99874.10;;;25.43
38249;BMP280;24045;51.138;17.126;2023-09-19T12:08:02;99876.94;;;25.63
38249;BMP280;24045;51.138;17.126;2023-09-19T12:23:15;99887.26;;;24.75
38249;BMP280;24045;51.138;17.126;2023-09-19T12:38:25;99886.38;;;25.15
38249;BMP280;24045;51.138;17.126;2023-09-19T12:53:27;99875.09;;;25.33
38249;BMP280;24045;51.138;17.126;2023-09-19T13:23:42;99860.45;;;25.33
38249;BMP280;24045;51.138;17.126;2023-09-19T13:38:46;99848.40;;;25.20
38249;BMP280;24045;51.138;17.126;2023-09-19T13:53:51;99844.89;;;24.69
38249;BMP280;24045;51.138;17.126;2023-09-19T14:08:54;99842.80;;;24.08
38249;BMP280;24045;51.138;17.126;2023-09-19T14:23:57;99840.13;;;23.80
38249;BMP280;24045;51.138;17.126;2023-09-19T14:39:00;99842.94;;;23.65
38249;BMP280;24045;51.138;17.126;2023-09-19T14:54:03;99853.14;;;23.41
38249;BMP280;24045;51.138;17.126;2023-09-19T15:09:06;99856.09;;;23.26
38249;BMP280;24045;51.138;17.126;2023-09-19T15:24:11;99856.50;;;22.88
38249;BMP280;24045;51.138;17.126;2023-09-19T15:39:14;99859.80;;;22.65
38249;BMP280;24045;51.138;17.126;2023-09-19T15:54:19;99867.63;;;22.25
38249;BMP280;24045;51.138;17.126;2023-09-19T16:09:22;99869.52;;;22.15
38249;BMP280;24045;51.138;17.126;2023-09-19T16:24:25;99877.38;;;21.99
38249;BMP280;24045;51.138;17.126;2023-09-19T16:39:28;99886.16;;;21.57
38249;BMP280;24045;51.138;17.126;2023-09-19T16:54:31;99887.14;;;20.93
38249;BMP280;24045;51.138;17.126;2023-09-19T17:09:34;99908.24;;;20.19
38249;BMP280;24045;51.138;17.126;2023-09-19T17:24:36;99918.08;;;19.42
38249;BMP280;24045;51.138;17.126;2023-09-19T17:39:39;99928.67;;;18.61
38249;BMP280;24045;51.138;17.126;2023-09-19T17:54:45;99940.73;;;17.90
38249;BMP280;24045;51.138;17.126;2023-09-19T18:09:50;99956.18;;;17.28
38249;BMP280;24045;51.138;17.126;2023-09-19T18:24:53;99970.54;;;16.74
38249;BMP280;24045;51.138;17.126;2023-09-19T18:39:56;99980.95;;;16.36
38249;BMP280;24045;51.138;17.126;2023-09-19T18:54:59;99980.02;;;16.12
38249;BMP280;24045;51.138;17.126;2023-09-19T19:10:02;99987.80;;;15.80
38249;BMP280;24045;51.138;17.126;2023-09-19T19:25:06;99996.86;;;15.49
38249;BMP280;24045;51.138;17.126;2023-09-19T19:40:09;100006.20;;;15.09
38249;BMP280;24045;51.138;17.126;2023-09-19T19:55:13;100025.88;;;14.70
38249;BMP280;24045;51.138;17.126;2023-09-19T20:10:17;100027.61;;;14.42
38249;BMP280;24045;51.138;17.126;2023-09-19T20:25:22;100030.14;;;14.11
38249;BMP280;24045;51.138;17.126;2023-09-19T20:40:25;100035.64;;;13.81
38249;BMP280;24045;51.138;17.126;2023-09-19T20:55:28;100041.52;;;13.57
38249;BMP280;24045;51.138;17.126;2023-09-19T21:10:31;100049.62;;;13.38
38249;BMP280;24045;51.138;17.126;2023-09-19T21:25:34;100062.79;;;13.09
38249;BMP280;24045;51.138;17.126;2023-09-19T21:40:37;100069.14;;;12.91
38249;BMP280;24045;51.138;17.126;2023-09-19T21:55:40;100067.04;;;12.88
38249;BMP280;24045;51.138;17.126;2023-09-19T22:10:43;100059.85;;;12.54
38249;BMP280;24045;51.138;17.126;2023-09-19T22:25:47;100065.52;;;12.37
38249;BMP280;24045;51.138;17.126;2023-09-19T22:40:50;100066.05;;;12.17
38249;BMP280;24045;51.138;17.126;2023-09-19T22:55:55;100070.85;;;11.99
38249;BMP280;24045;51.138;17.126;2023-09-19T23:11:01;100073.50;;;11.79
38249;BMP280;24045;51.138;17.126;2023-09-19T23:26:06;100085.22;;;11.65
38249;BMP280;24045;51.138;17.126;2023-09-19T23:41:09;100092.67;;;11.56
38249;BMP280;24045;51.138;17.126;2023-09-19T23:56:23;100091.58;;;11.31
